createdAt,value
2023-01-21T00:01:21.188Z,6.97
2023-01-21T00:03:49.652Z,7.27
2023-01-21T00:06:18.393Z,6.67
2023-01-21T00:08:48.114Z,6.20
2023-01-21T00:11:17.320Z,6.80
2023-01-21T00:13:45.995Z,7.40
2023-01-21T00:16:14.886Z,6.90
2023-01-21T00:18:43.331Z,7.63
2023-01-21T00:21:11.903Z,7.00
2023-01-21T00:23:40.293Z,7.37
2023-01-21T00:26:12.850Z,7.23
2023-01-21T00:28:43.689Z,6.77
2023-01-21T00:31:13.101Z,7.57
2023-01-21T00:33:41.448Z,6.77
2023-01-21T00:36:18.452Z,7.33
2023-01-21T00:38:49.457Z,6.80
2023-01-21T00:41:19.234Z,7.22
2023-01-21T00:43:47.453Z,6.73
2023-01-21T00:46:15.721Z,5.73
2023-01-21T00:48:44.002Z,6.37
2023-01-21T00:51:12.577Z,6.90
2023-01-21T00:53:42.925Z,6.83
2023-01-21T00:56:13.914Z,6.73
2023-01-21T00:58:44.492Z,6.28
2023-01-21T01:01:15.359Z,6.10
2023-01-21T01:03:44.164Z,6.33
2023-01-21T01:06:15.023Z,6.77
2023-01-21T01:08:43.753Z,6.40
2023-01-21T01:11:13.155Z,6.93
2023-01-21T01:13:43.355Z,6.67
2023-01-21T01:16:14.883Z,7.50
2023-01-21T01:18:43.114Z,6.55
2023-01-21T01:21:14.191Z,7.10
2023-01-21T01:23:43.405Z,6.68
2023-01-21T01:26:13.774Z,6.30
2023-01-21T01:28:43.739Z,6.67
2023-01-21T01:31:14.744Z,6.03
2023-01-21T01:33:43.192Z,6.50
2023-01-21T01:36:14.522Z,6.03
2023-01-21T01:38:42.954Z,6.57
2023-01-21T01:41:17.251Z,6.03
2023-01-21T01:43:57.440Z,7.23
2023-01-21T01:46:27.449Z,7.23
2023-01-21T01:49:02.141Z,7.40
2023-01-21T01:51:36.003Z,7.20
2023-01-21T01:54:05.845Z,6.97
2023-01-21T01:56:34.458Z,7.10
2023-01-21T01:59:04.364Z,7.83
2023-01-21T02:01:32.637Z,7.90
2023-01-21T02:04:02.419Z,7.53
2023-01-21T02:06:30.645Z,7.57
2023-01-21T02:08:58.827Z,7.07
2023-01-21T02:11:27.254Z,7.03
2023-01-21T02:13:58.772Z,8.03
2023-01-21T02:16:49.536Z,6.97
2023-01-21T02:19:43.613Z,7.23
2023-01-21T02:22:22.739Z,6.43
2023-01-21T02:25:29.746Z,7.40
2023-01-21T02:28:21.078Z,7.90
2023-01-21T02:31:05.581Z,7.03
2023-01-21T02:33:45.777Z,7.00
2023-01-21T02:36:28.136Z,7.17
2023-01-21T02:39:03.587Z,6.83
2023-01-21T02:41:43.615Z,7.30
2023-01-21T02:44:18.554Z,7.20
2023-01-21T02:46:51.949Z,7.87
2023-01-21T02:49:26.834Z,7.20
2023-01-21T02:51:55.114Z,7.70
2023-01-21T02:54:52.228Z,6.43
2023-01-21T02:57:41.033Z,6.43
2023-01-21T03:00:14.435Z,6.83
2023-01-21T03:03:17.425Z,6.90
2023-01-21T03:06:10.177Z,6.77
2023-01-21T03:08:46.951Z,6.33
2023-01-21T03:11:17.926Z,6.37
2023-01-21T03:14:09.895Z,6.68
2023-01-21T03:17:00.351Z,6.83
2023-01-21T03:19:36.145Z,6.90
2023-01-21T03:22:11.291Z,6.87
2023-01-21T03:24:41.670Z,7.00
2023-01-21T03:27:13.306Z,6.83
2023-01-21T03:32:15.265Z,5.57
2023-01-21T03:34:49.663Z,7.03
2023-01-21T03:37:26.381Z,7.27
2023-01-21T03:40:06.425Z,7.27
2023-01-21T03:42:35.259Z,7.30
2023-01-21T03:45:03.808Z,6.97
2023-01-21T03:47:35.639Z,6.70
2023-01-21T03:50:09.378Z,7.03
2023-01-21T03:52:41.482Z,7.50
2023-01-21T03:55:11.309Z,6.77
2023-01-21T03:57:39.799Z,7.80
2023-01-21T04:00:09.574Z,7.43
2023-01-21T04:02:37.902Z,6.63
2023-01-21T04:05:06.799Z,7.40
2023-01-21T04:07:35.118Z,7.63
2023-01-21T04:10:05.077Z,7.73
2023-01-21T04:12:33.539Z,8.83
2023-01-21T04:15:04.190Z,8.80
2023-01-21T04:17:33.623Z,7.63
2023-01-21T04:20:01.860Z,8.53
2023-01-21T04:22:30.138Z,8.33
2023-01-21T04:24:58.414Z,8.47
2023-01-21T04:27:28.065Z,8.13
2023-01-21T04:29:56.271Z,8.17
2023-01-21T04:32:24.532Z,9.67
2023-01-21T04:34:52.895Z,8.03
2023-01-21T04:37:21.463Z,8.53
2023-01-21T04:39:49.782Z,8.07
2023-01-21T04:42:18.305Z,8.23
2023-01-21T04:44:48.014Z,8.47
2023-01-21T04:47:16.396Z,8.50
2023-01-21T04:49:44.801Z,8.00
2023-01-21T04:52:13.082Z,8.77
2023-01-21T04:54:41.362Z,7.97
2023-01-21T04:57:10.860Z,8.63
2023-01-21T04:59:39.135Z,8.67
2023-01-21T05:02:08.970Z,9.60
2023-01-21T05:04:37.551Z,9.20
2023-01-21T05:07:06.040Z,8.57
2023-01-21T05:09:34.391Z,10.07
2023-01-21T05:12:02.691Z,8.83
2023-01-21T05:14:30.943Z,9.33
2023-01-21T05:16:59.897Z,8.53
2023-01-21T05:19:29.704Z,8.60
2023-01-21T05:21:57.930Z,8.83
2023-01-21T05:24:26.361Z,9.77
2023-01-21T05:26:54.635Z,9.70
2023-01-21T05:29:22.877Z,9.40
2023-01-21T05:31:51.352Z,9.27
2023-01-21T05:34:19.640Z,9.40
2023-01-21T05:36:49.364Z,8.47
2023-01-21T05:39:17.719Z,8.60
2023-01-21T05:41:45.973Z,7.87
2023-01-21T05:44:16.027Z,7.97
2023-01-21T05:46:45.708Z,7.80
2023-01-21T05:49:14.009Z,8.23
2023-01-21T05:51:42.384Z,8.60
2023-01-21T05:54:12.083Z,9.10
2023-01-21T05:56:40.325Z,8.90
2023-01-21T05:59:10.057Z,9.23
2023-01-21T06:01:38.354Z,8.83
2023-01-21T06:04:06.872Z,8.33
2023-01-21T06:06:35.269Z,8.97
2023-01-21T06:09:03.608Z,8.57
2023-01-21T06:11:33.269Z,8.57
2023-01-21T06:14:01.641Z,8.77
2023-01-21T06:16:29.915Z,8.77
2023-01-21T06:18:58.188Z,8.83
2023-01-21T06:21:26.606Z,8.00
2023-01-21T06:23:54.886Z,8.40
2023-01-21T06:26:23.154Z,8.93
2023-01-21T06:28:52.904Z,8.93
2023-01-21T06:31:21.292Z,8.80
2023-01-21T06:33:49.661Z,9.43
2023-01-21T06:36:18.001Z,8.73
2023-01-21T06:38:46.476Z,9.00
2023-01-21T06:41:14.807Z,8.23
2023-01-21T06:43:43.104Z,8.23
2023-01-21T06:46:12.929Z,8.60
2023-01-21T06:48:43.257Z,8.40
2023-01-21T06:51:11.528Z,8.30
2023-01-21T06:53:39.832Z,8.23
2023-01-21T06:56:08.757Z,7.37
2023-01-21T06:58:37.037Z,8.47
2023-01-21T07:01:05.447Z,8.63
2023-01-21T07:03:35.083Z,8.07
2023-01-21T07:06:03.341Z,8.77
2023-01-21T07:08:31.624Z,7.90
2023-01-21T07:10:59.918Z,8.73
2023-01-21T07:13:28.179Z,8.47
2023-01-21T07:16:01.011Z,8.70
2023-01-21T07:18:29.340Z,8.67
2023-01-21T07:20:59.121Z,9.37
2023-01-21T07:23:27.414Z,8.20
2023-01-21T07:25:55.724Z,8.63
2023-01-21T07:28:24.085Z,9.30
2023-01-21T07:30:52.480Z,8.23
2023-01-21T07:33:20.886Z,8.47
2023-01-21T07:35:50.087Z,8.20
2023-01-21T07:38:19.761Z,8.33
2023-01-21T07:40:49.826Z,9.00
2023-01-21T07:43:18.400Z,9.13
2023-01-21T07:45:47.037Z,8.80
2023-01-21T07:48:15.321Z,8.47
2023-01-21T07:50:43.612Z,8.27
2023-01-21T07:53:13.000Z,8.13
2023-01-21T07:55:42.611Z,7.87
2023-01-21T07:58:10.855Z,9.00
2023-01-21T08:00:39.060Z,8.53
2023-01-21T08:03:07.305Z,8.87
2023-01-21T08:05:35.610Z,8.50
2023-01-21T08:08:03.957Z,7.00
2023-01-21T08:10:32.288Z,8.13
2023-01-21T08:13:02.274Z,8.83
2023-01-21T08:15:30.570Z,8.37
2023-01-21T08:17:58.773Z,8.00
2023-01-21T08:20:27.122Z,8.67
2023-01-21T08:22:55.350Z,8.50
2023-01-21T08:25:23.596Z,8.37
2023-01-21T08:27:51.890Z,9.03
2023-01-21T08:30:21.718Z,8.40
2023-01-21T08:32:49.960Z,8.07
2023-01-21T08:35:18.640Z,8.07
2023-01-21T08:37:47.067Z,8.20
2023-01-21T08:40:15.474Z,8.30
2023-01-21T08:42:43.666Z,9.20
2023-01-21T08:45:15.147Z,8.47
2023-01-21T08:50:13.206Z,7.73
2023-01-21T08:52:41.409Z,8.17
2023-01-21T08:55:10.692Z,8.93
2023-01-21T08:57:38.865Z,8.00
2023-01-21T09:00:08.140Z,9.03
2023-01-21T09:02:36.361Z,9.53
2023-01-21T09:05:06.889Z,8.00
2023-01-21T09:07:35.139Z,9.07
2023-01-21T09:10:03.391Z,9.40
2023-01-21T09:12:31.574Z,9.47
2023-01-21T09:14:59.788Z,8.83
2023-01-21T09:17:28.570Z,8.23
2023-01-21T09:19:56.834Z,9.10
2023-01-21T09:22:26.479Z,8.17
2023-01-21T09:24:54.696Z,9.03
2023-01-21T09:27:27.323Z,9.23
2023-01-21T09:29:55.915Z,9.33
2023-01-21T09:32:24.083Z,8.70
2023-01-21T09:34:52.322Z,9.13
2023-01-21T09:37:20.488Z,9.07
2023-01-21T09:39:50.108Z,9.10
2023-01-21T09:42:22.225Z,10.30
2023-01-21T09:44:53.476Z,9.37
2023-01-21T09:47:25.718Z,9.35
2023-01-21T09:49:55.827Z,8.97
2023-01-21T09:52:30.964Z,10.47
2023-01-21T09:55:02.429Z,9.73
2023-01-21T09:57:57.309Z,8.82
2023-01-21T10:00:36.458Z,9.83
2023-01-21T10:03:19.555Z,9.85
2023-01-21T10:06:09.448Z,10.35
2023-01-21T10:08:52.390Z,9.90
2023-01-21T10:11:38.290Z,10.23
2023-01-21T10:14:26.617Z,10.55
2023-01-21T10:17:02.657Z,10.02
2023-01-21T10:19:37.120Z,10.80
2023-01-21T10:22:11.259Z,11.80
2023-01-21T10:24:46.190Z,10.40
2023-01-21T10:27:21.437Z,11.15
2023-01-21T10:29:52.978Z,9.90
2023-01-21T10:32:25.585Z,9.20
2023-01-21T10:34:55.852Z,8.70
2023-01-21T10:37:31.852Z,9.85
2023-01-21T10:40:09.623Z,10.90
2023-01-21T10:42:51.359Z,9.27
2023-01-21T10:48:04.744Z,9.82
2023-01-21T10:50:44.172Z,9.95
2023-01-21T10:53:23.289Z,10.73
2023-01-21T10:56:01.794Z,10.18
2023-01-21T10:58:36.890Z,10.57
2023-01-21T11:01:08.984Z,9.80
2023-01-21T11:03:41.526Z,10.20
2023-01-21T11:06:12.509Z,10.52
2023-01-21T11:08:42.348Z,10.82
2023-01-21T11:11:11.503Z,10.77
2023-01-21T11:13:41.764Z,10.68
2023-01-21T11:16:10.103Z,10.95
2023-01-21T11:18:40.725Z,10.82
2023-01-21T11:21:18.713Z,11.20
2023-01-21T11:23:55.892Z,11.57
2023-01-21T11:26:28.676Z,10.77
2023-01-21T11:29:15.367Z,9.82
2023-01-21T11:31:45.664Z,9.68
2023-01-21T11:34:15.954Z,10.13
2023-01-21T11:37:01.310Z,9.32
2023-01-21T11:39:31.411Z,14.32
2023-01-21T11:42:06.936Z,60.67
2023-01-21T11:44:54.700Z,25.05
2023-01-21T11:47:38.864Z,12.10
2023-01-21T11:50:17.849Z,9.98
2023-01-21T11:52:46.333Z,9.85
2023-01-21T11:55:24.074Z,9.07
2023-01-21T11:57:55.631Z,8.57
2023-01-21T12:00:28.155Z,8.55
2023-01-21T12:02:59.385Z,7.85
2023-01-21T12:05:34.665Z,8.25
2023-01-21T12:08:06.089Z,8.65
2023-01-21T12:10:38.246Z,7.55
2023-01-21T12:13:23.119Z,8.07
2023-01-21T12:16:23.842Z,7.20
2023-01-21T12:19:21.060Z,7.63
2023-01-21T12:22:03.082Z,5.80
2023-01-21T12:24:47.941Z,6.40
2023-01-21T12:27:25.311Z,7.07
2023-01-21T12:30:03.381Z,7.00
2023-01-21T12:32:37.372Z,6.03
2023-01-21T12:35:12.471Z,6.13
2023-01-21T12:37:46.949Z,6.53
2023-01-21T12:40:20.463Z,6.28
2023-01-21T12:42:54.272Z,6.72
2023-01-21T12:45:26.417Z,5.53
2023-01-21T12:48:01.480Z,6.25
2023-01-21T12:50:39.777Z,5.68
2023-01-21T12:53:19.511Z,6.43
2023-01-21T12:56:04.133Z,5.93
2023-01-21T12:58:34.491Z,5.95
2023-01-21T13:01:07.296Z,5.88
2023-01-21T13:03:47.128Z,5.70
2023-01-21T13:06:25.938Z,5.65
2023-01-21T13:09:04.352Z,6.00
2023-01-21T13:11:37.295Z,6.10
2023-01-21T13:14:23.809Z,5.72
2023-01-21T13:16:57.400Z,5.60
2023-01-21T13:19:25.783Z,4.97
2023-01-21T13:22:04.682Z,5.70
2023-01-21T13:24:44.452Z,5.50
2023-01-21T13:27:19.589Z,5.55
2023-01-21T13:29:55.072Z,5.80
2023-01-21T13:32:39.695Z,6.20
2023-01-21T13:35:23.743Z,5.35
2023-01-21T13:38:02.753Z,6.10
2023-01-21T13:40:41.252Z,7.15
2023-01-21T13:43:21.448Z,6.73
2023-01-21T13:46:05.765Z,5.82
2023-01-21T13:48:47.335Z,5.67
2023-01-21T13:51:44.595Z,6.28
2023-01-21T13:54:38.444Z,6.38
2023-01-21T13:57:27.335Z,6.30
2023-01-21T13:59:59.519Z,6.60
2023-01-21T14:02:35.227Z,6.00
2023-01-21T14:05:07.429Z,5.53
2023-01-21T14:07:40.900Z,6.10
2023-01-21T14:10:17.776Z,6.27
2023-01-21T14:13:32.793Z,6.27
2023-01-21T14:16:29.164Z,6.50
2023-01-21T14:19:24.947Z,5.77
2023-01-21T14:22:22.282Z,5.83
2023-01-21T14:25:09.425Z,5.10
2023-01-21T14:27:48.232Z,6.40
2023-01-21T14:30:21.521Z,6.17
2023-01-21T14:32:53.686Z,5.83
2023-01-21T14:35:27.625Z,7.23
2023-01-21T14:38:06.371Z,5.97
2023-01-21T14:40:36.163Z,6.83
2023-01-21T14:43:05.927Z,6.13
2023-01-21T14:45:54.033Z,6.13
2023-01-21T14:48:30.585Z,6.43
2023-01-21T14:51:12.916Z,6.27
2023-01-21T14:53:47.624Z,6.13
2023-01-21T14:56:22.998Z,5.97
2023-01-21T14:58:55.267Z,6.00
2023-01-21T15:01:43.150Z,5.50
2023-01-21T15:04:25.615Z,6.27
2023-01-21T15:06:57.670Z,6.40
2023-01-21T15:09:29.673Z,6.80
2023-01-21T15:12:01.865Z,5.50
2023-01-21T15:14:35.429Z,5.93
2023-01-21T15:17:03.817Z,6.53
2023-01-21T15:19:34.576Z,6.83
2023-01-21T15:22:39.847Z,7.15
2023-01-21T15:25:36.988Z,6.70
2023-01-21T15:28:43.836Z,6.13
2023-01-21T15:31:30.236Z,6.00
2023-01-21T15:34:00.817Z,7.03
2023-01-21T15:36:32.304Z,7.43
2023-01-21T15:39:03.542Z,6.72
2023-01-21T15:41:44.105Z,5.10
2023-01-21T15:44:34.971Z,6.33
2023-01-21T15:47:15.401Z,5.90
2023-01-21T15:49:53.919Z,5.70
2023-01-21T15:52:34.387Z,5.60
2023-01-21T15:55:19.278Z,6.70
2023-01-21T15:57:55.595Z,6.33
2023-01-21T16:00:34.022Z,6.00
2023-01-21T16:03:12.616Z,5.90
2023-01-21T16:05:50.659Z,5.93
2023-01-21T16:08:27.487Z,7.20
2023-01-21T16:11:15.794Z,6.27
2023-01-21T16:13:54.739Z,5.13
2023-01-21T16:16:39.375Z,6.37
2023-01-21T16:19:11.758Z,5.63
2023-01-21T16:21:43.526Z,6.27
2023-01-21T16:24:17.156Z,5.90
2023-01-21T16:26:45.622Z,6.10
2023-01-21T16:29:15.461Z,6.07
2023-01-21T16:31:48.331Z,6.33
2023-01-21T16:34:26.204Z,5.13
2023-01-21T16:36:54.501Z,5.77
2023-01-21T16:39:22.740Z,6.33
2023-01-21T16:42:02.706Z,5.80
2023-01-21T16:44:32.896Z,6.00
2023-01-21T16:47:01.300Z,6.43
2023-01-21T16:49:31.188Z,6.27
2023-01-21T16:52:01.793Z,6.70
2023-01-21T16:54:32.369Z,7.00
2023-01-21T16:57:02.174Z,6.07
2023-01-21T16:59:38.707Z,6.50
2023-01-21T17:02:16.899Z,6.33
2023-01-21T17:04:46.618Z,5.87
2023-01-21T17:07:16.983Z,5.50
2023-01-21T17:09:45.322Z,6.10
2023-01-21T17:12:24.115Z,8.20
2023-01-21T17:14:58.288Z,7.70
2023-01-21T17:17:29.810Z,7.10
2023-01-21T17:19:59.800Z,7.45
2023-01-21T17:22:30.945Z,6.23
2023-01-21T17:25:07.928Z,5.55
2023-01-21T17:27:38.919Z,6.17
2023-01-21T17:30:20.738Z,6.25
2023-01-21T17:35:24.533Z,5.57
2023-01-21T17:37:57.647Z,5.60
2023-01-21T17:40:33.376Z,6.40
2023-01-21T17:43:10.767Z,7.13
2023-01-21T17:45:44.930Z,5.83
2023-01-21T17:48:22.973Z,7.30
2023-01-21T17:50:53.547Z,6.47
2023-01-21T17:53:25.887Z,5.90
2023-01-21T17:55:59.719Z,5.13
2023-01-21T17:58:51.087Z,6.43
2023-01-21T18:01:20.114Z,6.10
2023-01-21T18:03:48.377Z,4.80
2023-01-21T18:06:24.089Z,5.33
2023-01-21T18:08:52.914Z,5.67
2023-01-21T18:11:22.522Z,5.67
2023-01-21T18:13:52.583Z,5.70
2023-01-21T18:16:20.970Z,4.97
2023-01-21T18:18:50.518Z,4.93
2023-01-21T18:21:22.082Z,5.13
2023-01-21T18:23:51.291Z,5.68
2023-01-21T18:26:27.471Z,5.50
2023-01-21T18:28:55.700Z,4.43
2023-01-21T18:31:24.055Z,4.60
2023-01-21T18:33:52.440Z,4.80
2023-01-21T18:36:22.059Z,4.63
2023-01-21T18:38:50.259Z,4.33
2023-01-21T18:41:18.526Z,5.00
2023-01-21T18:43:46.800Z,4.53
2023-01-21T18:46:16.388Z,4.40
2023-01-21T18:48:44.785Z,3.63
2023-01-21T18:51:14.709Z,4.47
2023-01-21T18:53:44.386Z,4.63
2023-01-21T18:56:14.897Z,4.13
2023-01-21T18:58:43.398Z,4.33
2023-01-21T19:01:22.481Z,4.07
2023-01-21T19:03:54.757Z,3.60
2023-01-21T19:06:24.701Z,3.97
2023-01-21T19:08:55.271Z,3.50
2023-01-21T19:11:24.893Z,4.03
2023-01-21T19:13:53.216Z,4.20
2023-01-21T19:16:22.897Z,3.83
2023-01-21T19:18:51.199Z,3.77
2023-01-21T19:21:19.480Z,3.47
2023-01-21T19:23:48.022Z,4.10
2023-01-21T19:26:18.043Z,3.93
2023-01-21T19:28:46.313Z,3.83
2023-01-21T19:31:14.613Z,4.17
2023-01-21T19:33:45.602Z,3.57
2023-01-21T19:36:16.535Z,3.53
2023-01-21T19:38:51.233Z,3.53
2023-01-21T19:41:20.898Z,4.30
2023-01-21T19:43:49.249Z,3.50
2023-01-21T19:46:18.683Z,4.13
2023-01-21T19:48:50.055Z,3.93
2023-01-21T19:51:18.370Z,4.40
2023-01-21T19:53:46.617Z,3.73
2023-01-21T19:56:17.179Z,4.00
2023-01-21T19:58:48.521Z,4.13
2023-01-21T20:01:16.804Z,4.05
2023-01-21T20:03:58.457Z,3.53
2023-01-21T20:06:28.921Z,3.53
2023-01-21T20:08:57.137Z,3.67
2023-01-21T20:11:25.603Z,3.40
2023-01-21T20:13:55.156Z,3.90
2023-01-21T20:16:26.339Z,3.87
2023-01-21T20:18:56.312Z,3.38
2023-01-21T20:21:24.659Z,3.70
2023-01-21T20:23:52.973Z,3.63
2023-01-21T20:26:25.788Z,3.73
2023-01-21T20:28:55.625Z,3.70
2023-01-21T20:31:24.010Z,3.90
2023-01-21T20:33:52.349Z,3.60
2023-01-21T20:36:23.082Z,3.00
2023-01-21T20:38:51.676Z,3.72
2023-01-21T20:41:20.082Z,3.60
2023-01-21T20:43:48.242Z,3.73
2023-01-21T20:46:21.625Z,3.80
2023-01-21T20:48:51.679Z,3.87
2023-01-21T20:51:20.862Z,3.63
2023-01-21T20:53:49.093Z,3.13
2023-01-21T20:56:20.792Z,3.30
2023-01-21T21:01:20.647Z,3.27
2023-01-21T21:03:49.092Z,3.03
2023-01-21T21:06:19.927Z,3.37
2023-01-21T21:08:48.964Z,3.63
2023-01-21T21:11:18.268Z,3.23
2023-01-21T21:13:49.317Z,3.40
2023-01-21T21:16:24.410Z,3.58
2023-01-21T21:18:52.975Z,4.00
2023-01-21T21:21:23.703Z,3.73
2023-01-21T21:23:53.049Z,3.50
2023-01-21T21:26:23.472Z,3.67
2023-01-21T21:28:54.758Z,4.40
2023-01-21T21:31:26.000Z,4.22
2023-01-21T21:33:54.545Z,3.72
2023-01-21T21:36:24.634Z,3.73
2023-01-21T21:38:55.857Z,4.30
2023-01-21T21:41:43.563Z,4.25
2023-01-21T21:44:12.672Z,4.90
2023-01-21T21:46:59.945Z,4.73
2023-01-21T21:49:28.808Z,4.93
2023-01-21T21:51:57.473Z,4.73
2023-01-21T21:54:25.709Z,7.47
2023-01-21T21:56:53.889Z,7.17
2023-01-21T21:59:22.057Z,5.97
2023-01-21T22:01:51.721Z,6.10
2023-01-21T22:04:21.323Z,6.23
2023-01-21T22:06:49.589Z,6.43
2023-01-21T22:09:17.962Z,6.63
2023-01-21T22:11:46.266Z,5.70
2023-01-21T22:14:14.548Z,5.67
2023-01-21T22:16:42.881Z,5.30
2023-01-21T22:19:13.277Z,5.37
2023-01-21T22:21:41.604Z,5.33
2023-01-21T22:24:10.658Z,5.47
2023-01-21T22:26:39.393Z,5.90
2023-01-21T22:29:07.647Z,5.20
2023-01-21T22:31:36.210Z,4.80
2023-01-21T22:34:05.270Z,5.10
2023-01-21T22:36:34.913Z,4.43
2023-01-21T22:39:03.225Z,4.47
2023-01-21T22:41:31.542Z,4.47
2023-01-21T22:43:59.755Z,5.30
2023-01-21T22:46:30.501Z,4.10
2023-01-21T22:48:58.880Z,4.57
2023-01-21T22:51:29.102Z,4.47
2023-01-21T22:54:00.215Z,4.33
2023-01-21T22:56:49.695Z,3.92
2023-01-21T22:59:16.594Z,4.47
2023-01-21T23:01:44.894Z,4.33
2023-01-21T23:04:13.312Z,3.73
2023-01-21T23:06:44.636Z,3.93
2023-01-21T23:09:16.432Z,4.50
2023-01-21T23:11:45.143Z,4.40
2023-01-21T23:14:13.647Z,3.90
2023-01-21T23:16:41.914Z,4.27
2023-01-21T23:19:10.114Z,3.40
2023-01-21T23:21:38.536Z,4.17
2023-01-21T23:24:07.769Z,3.93
2023-01-21T23:26:37.970Z,4.30
2023-01-21T23:29:06.198Z,4.53
2023-01-21T23:31:35.300Z,4.60
2023-01-21T23:34:04.383Z,4.50
2023-01-21T23:36:32.622Z,4.10
2023-01-21T23:39:00.864Z,3.93
2023-01-21T23:41:29.112Z,4.30
2023-01-21T23:44:01.602Z,4.27
2023-01-21T23:46:30.196Z,4.33
2023-01-21T23:48:58.486Z,4.13
2023-01-21T23:51:26.725Z,4.60
2023-01-21T23:53:54.969Z,4.27
2023-01-21T23:56:25.058Z,4.80
2023-01-21T23:58:53.560Z,3.93
